Time;durP1;ratioP1;P1;durP2;ratioP2;P2;SDS_P1;SDS_P2;PMS_P1;PMS_P2;Temp;Humidity;BMP_temperature;BMP_pressure;BME280_temperature;BME280_humidity;BME280_pressure;Samples;Min_cycle;Max_cycle;Signal;HPM_P1;HPM_P2
2021/05/14 00:07:35;;;;;;;3.25;1.98;;;12.80;99.90;;;;;;6691517;88;20363;-78
2021/05/14 00:17:35;;;;;;;4.50;1.80;;;12.70;99.90;;;;;;6691415;88;20368;-77
2021/05/14 00:27:37;;;;;;;3.50;1.85;;;12.50;99.90;;;;;;6690759;88;20203;-78
2021/05/14 00:37:37;;;;;;;2.30;1.70;;;12.40;99.90;;;;;;6690404;88;20252;-77
2021/05/14 00:47:38;;;;;;;3.67;1.80;;;12.30;99.90;;;;;;6690116;88;20200;-78
2021/05/14 00:57:40;;;;;;;2.42;1.55;;;12.20;99.90;;;;;;6690469;88;20510;-78
2021/05/14 01:07:40;;;;;;;3.42;1.90;;;12.20;99.90;;;;;;6689157;88;20200;-77
2021/05/14 01:17:41;;;;;;;2.35;1.77;;;12.00;99.90;;;;;;6686800;88;20199;-77
2021/05/14 01:27:42;;;;;;;3.72;1.90;;;11.70;99.90;;;;;;6688468;88;20237;-77
2021/05/14 01:37:43;;;;;;;5.20;2.08;;;11.70;99.90;;;;;;6682986;88;20213;-77
2021/05/14 01:47:44;;;;;;;2.65;1.83;;;11.50;99.90;;;;;;6686180;88;20653;-78
2021/05/14 01:57:45;;;;;;;2.67;1.70;;;11.30;99.90;;;;;;6683010;88;20220;-78
2021/05/14 02:07:45;;;;;;;2.58;1.70;;;11.10;99.90;;;;;;6686287;88;20758;-77
2021/05/14 02:17:46;;;;;;;2.35;1.37;;;11.00;99.90;;;;;;6686081;88;20205;-78
2021/05/14 02:27:46;;;;;;;2.05;1.00;;;11.00;99.90;;;;;;6686812;88;20302;-78
2021/05/14 02:37:47;;;;;;;2.15;1.17;;;10.70;99.90;;;;;;6686706;88;20234;-77
2021/05/14 02:47:48;;;;;;;2.47;1.30;;;10.60;99.90;;;;;;6691341;88;20322;-78
2021/05/14 02:57:48;;;;;;;2.80;0.97;;;10.50;99.90;;;;;;6683559;88;20195;-79
2021/05/14 03:07:49;;;;;;;2.40;1.00;;;10.30;99.90;;;;;;6688160;88;20509;-78
2021/05/14 03:17:49;;;;;;;3.60;1.20;;;10.30;99.90;;;;;;6691230;88;21080;-76
2021/05/14 03:27:50;;;;;;;3.87;1.27;;;10.20;99.90;;;;;;6692607;88;20251;-78
2021/05/14 03:37:51;;;;;;;2.12;1.30;;;10.00;99.90;;;;;;6688289;88;20583;-79
2021/05/14 03:47:58;;;;;;;2.08;1.20;;;9.90;99.90;;;;;;6692891;88;20230;-79
2021/05/14 03:57:59;;;;;;;1.90;1.25;;;9.80;99.90;;;;;;6689558;88;20210;-79
2021/05/14 04:07:59;;;;;;;3.53;1.20;;;9.80;99.90;;;;;;6688721;88;20199;-77
2021/05/14 04:18:00;;;;;;;1.92;1.12;;;9.70;99.90;;;;;;6688814;88;20221;-77
2021/05/14 04:28:00;;;;;;;1.90;1.08;;;9.70;99.90;;;;;;6690223;88;20194;-78
2021/05/14 04:38:01;;;;;;;4.75;1.23;;;9.80;99.90;;;;;;6689370;88;20194;-78
2021/05/14 04:48:02;;;;;;;1.85;1.00;;;9.80;99.90;;;;;;6692396;88;20175;-79
2021/05/14 04:58:03;;;;;;;2.17;1.00;;;9.80;99.90;;;;;;6692314;88;21377;-78
2021/05/14 05:08:04;;;;;;;2.03;1.00;;;9.90;99.90;;;;;;6692836;88;20203;-77
2021/05/14 05:18:05;;;;;;;2.00;0.95;;;9.90;99.90;;;;;;6692795;88;20217;-77
2021/05/14 05:28:05;;;;;;;2.22;1.00;;;10.20;99.90;;;;;;6694360;88;20184;-77
2021/05/14 05:38:20;;;;;;;4.93;1.08;;;10.30;99.90;;;;;;6695177;88;20740;-78
2021/05/14 05:48:20;;;;;;;2.55;1.00;;;10.60;99.90;;;;;;6688165;88;20725;-78
2021/05/14 05:58:21;;;;;;;2.08;0.90;;;10.80;99.90;;;;;;6688733;88;20213;-78
2021/05/14 06:08:24;;;;;;;3.13;1.10;;;11.40;99.90;;;;;;6687345;88;20278;-78
2021/05/14 06:18:26;;;;;;;4.72;1.00;;;11.80;99.90;;;;;;6690404;88;20510;-78
2021/05/14 06:28:26;;;;;;;1.90;0.90;;;12.00;99.90;;;;;;6700262;88;20199;-78
2021/05/14 06:38:27;;;;;;;2.25;0.75;;;12.50;99.90;;;;;;6698154;88;20219;-77
2021/05/14 06:48:28;;;;;;;2.47;1.00;;;12.70;99.90;;;;;;6695166;88;20175;-80
2021/05/14 06:58:29;;;;;;;1.58;0.60;;;13.70;99.90;;;;;;6700076;88;20203;-78
2021/05/14 07:08:29;;;;;;;1.60;0.75;;;14.10;99.90;;;;;;6699468;88;20194;-76
2021/05/14 07:18:31;;;;;;;3.17;0.80;;;15.10;99.90;;;;;;6694171;88;20587;-76
2021/05/14 07:28:31;;;;;;;2.30;0.70;;;15.50;99.90;;;;;;6694457;88;20239;-79
2021/05/14 07:38:32;;;;;;;4.40;0.90;;;16.20;99.90;;;;;;6698147;88;20215;-76
2021/05/14 07:48:32;;;;;;;1.98;0.73;;;16.70;99.90;;;;;;6695157;88;20237;-79
2021/05/14 07:58:33;;;;;;;2.17;0.70;;;17.40;99.90;;;;;;6706234;88;20724;-77
2021/05/14 08:08:38;;;;;;;1.70;0.50;;;17.80;99.90;;;;;;6695154;88;20215;-78
2021/05/14 08:18:38;;;;;;;1.42;0.50;;;18.00;99.90;;;;;;6693743;88;20306;-77
2021/05/14 08:28:40;;;;;;;2.03;0.62;;;19.30;97.70;;;;;;6689964;88;20652;-77
2021/05/14 08:38:40;;;;;;;2.50;0.73;;;18.20;98.50;;;;;;6693061;88;20182;-78
2021/05/14 08:48:41;;;;;;;2.35;0.60;;;17.90;99.30;;;;;;6692552;88;20192;-77
2021/05/14 08:58:42;;;;;;;1.27;0.50;;;17.20;98.80;;;;;;6692022;88;20182;-76
2021/05/14 09:08:55;;;;;;;1.62;0.50;;;17.80;98.10;;;;;;6692326;88;20194;-77
2021/05/14 09:18:56;;;;;;;6.32;0.73;;;17.90;98.10;;;;;;6692192;88;20191;-78
2021/05/14 09:28:57;;;;;;;1.25;0.50;;;17.50;98.80;;;;;;6690768;88;20187;-77
2021/05/14 09:39:03;;;;;;;3.08;0.50;;;17.60;99.00;;;;;;6696088;88;20229;-77
2021/05/14 09:49:09;;;;;;;1.65;0.57;;;18.40;98.00;;;;;;6695883;88;20285;-77
2021/05/14 09:59:10;;;;;;;2.42;0.75;;;17.80;98.60;;;;;;6697305;88;20672;-78
2021/05/14 10:09:17;;;;;;;0.90;0.32;;;17.60;99.90;;;;;;6694899;88;20307;-77
2021/05/14 10:19:18;;;;;;;1.15;0.40;;;17.80;96.90;;;;;;6694319;88;20310;-78
2021/05/14 10:29:18;;;;;;;1.83;0.57;;;18.80;93.60;;;;;;6694004;88;20181;-78
2021/05/14 10:39:31;;;;;;;1.48;0.55;;;18.70;94.60;;;;;;6693342;88;20669;-77
2021/05/14 10:50:05;;;;;;;0.90;0.35;;;18.30;95.10;;;;;;6690406;88;20213;-76
2021/05/14 11:00:24;;;;;;;4.15;0.45;;;17.60;98.50;;;;;;6692160;88;20322;-76
2021/05/14 11:10:26;;;;;;;1.77;0.52;;;17.50;96.70;;;;;;6690967;88;20247;-77
2021/05/14 11:20:27;;;;;;;1.00;0.20;;;16.90;99.90;;;;;;6682849;89;20211;-77
2021/05/14 11:30:27;;;;;;;1.17;0.32;;;17.20;99.90;;;;;;6683154;88;20355;-77
2021/05/14 11:40:30;;;;;;;2.72;0.77;;;17.90;99.90;;;;;;6683918;88;20269;-77
2021/05/14 11:50:34;;;;;;;1.08;0.40;;;19.10;97.20;;;;;;6685125;88;20618;-79
2021/05/14 12:00:43;;;;;;;1.47;0.50;;;21.90;93.80;;;;;;6688314;88;20280;-77
2021/05/14 12:11:00;;;;;;;1.52;0.40;;;24.30;87.70;;;;;;6684877;88;20219;-77
2021/05/14 12:21:02;;;;;;;1.67;0.60;;;26.30;78.20;;;;;;6667364;89;20202;-77
2021/05/14 12:31:10;;;;;;;2.28;0.80;;;26.30;73.10;;;;;;6672607;89;21085;-77
2021/05/14 12:41:31;;;;;;;2.85;0.90;;;23.50;78.30;;;;;;6667070;89;20190;-77
2021/05/14 12:51:32;;;;;;;2.42;0.90;;;21.20;87.40;;;;;;6676018;89;20317;-78
2021/05/14 13:01:32;;;;;;;2.83;0.80;;;19.70;90.30;;;;;;6668094;89;20183;-77
2021/05/14 13:11:37;;;;;;;2.03;0.80;;;20.80;88.90;;;;;;6666965;89;20331;-77
2021/05/14 13:21:38;;;;;;;2.83;0.60;;;21.60;86.80;;;;;;6667797;89;20195;-78
2021/05/14 13:31:38;;;;;;;1.08;0.40;;;22.60;81.60;;;;;;6669321;89;20813;-78
2021/05/14 13:41:42;;;;;;;6.40;0.82;;;22.00;80.70;;;;;;6667553;89;20222;-77
2021/05/14 13:51:43;;;;;;;1.03;0.30;;;21.00;81.80;;;;;;6667418;89;20378;-77
2021/05/14 14:01:43;;;;;;;2.00;0.40;;;17.90;92.10;;;;;;6667511;89;20400;-76
2021/05/14 14:11:48;;;;;;;1.90;0.40;;;14.70;99.90;;;;;;6663858;89;20737;-75
2021/05/14 14:21:51;;;;;;;1.33;0.40;;;13.10;99.90;;;;;;6670550;89;20251;-78
2021/05/14 14:31:51;;;;;;;1.40;0.30;;;12.00;99.90;;;;;;6667946;89;20245;-77
2021/05/14 14:41:52;;;;;;;0.77;0.30;;;11.70;99.90;;;;;;6677513;88;20208;-75
2021/05/14 14:51:53;;;;;;;3.60;0.70;;;12.00;99.90;;;;;;6683373;88;20638;-76
2021/05/14 15:01:53;;;;;;;3.03;0.88;;;12.90;99.90;;;;;;6682273;88;20575;-75
2021/05/14 15:11:54;;;;;;;2.55;0.50;;;13.50;99.90;;;;;;6683538;88;20227;-74
2021/05/14 15:21:55;;;;;;;1.85;0.57;;;14.00;99.90;;;;;;6685575;88;20686;-74
2021/05/14 15:31:55;;;;;;;3.67;0.30;;;14.40;99.90;;;;;;6686124;88;20220;-76
2021/05/14 15:41:58;;;;;;;2.05;0.62;;;14.40;99.90;;;;;;6687248;88;20326;-77
2021/05/14 15:51:59;;;;;;;1.30;0.70;;;15.80;99.90;;;;;;6694978;88;20454;-79
2021/05/14 16:01:59;;;;;;;1.90;1.00;;;15.00;99.90;;;;;;6683743;88;20249;-78
2021/05/14 16:12:00;;;;;;;1.40;0.40;;;14.80;99.90;;;;;;6683100;88;20187;-76
2021/05/14 16:22:01;;;;;;;1.73;0.80;;;14.70;99.90;;;;;;6684115;88;20227;-77
2021/05/14 16:32:02;;;;;;;4.40;1.87;;;14.80;99.90;;;;;;6686655;88;20245;-78
2021/05/14 16:42:04;;;;;;;1.30;0.80;;;14.80;99.90;;;;;;6688548;88;20211;-78
2021/05/14 16:52:06;;;;;;;1.15;0.70;;;14.70;99.90;;;;;;6688902;88;20618;-78
2021/05/14 17:02:07;;;;;;;1.58;0.70;;;14.50;99.90;;;;;;6685994;88;20688;-76
2021/05/14 17:12:08;;;;;;;1.10;0.60;;;14.30;99.90;;;;;;6689774;88;20203;-78
2021/05/14 17:22:09;;;;;;;2.33;0.90;;;13.90;99.90;;;;;;6692658;88;20212;-76
2021/05/14 17:32:09;;;;;;;1.60;0.70;;;13.60;99.90;;;;;;6691379;88;20664;-77
2021/05/14 17:42:10;;;;;;;1.48;0.70;;;13.00;99.90;;;;;;6683650;88;20187;-77
2021/05/14 17:52:11;;;;;;;5.78;0.90;;;12.60;99.90;;;;;;6687991;88;20339;-76
2021/05/14 18:02:11;;;;;;;1.73;0.70;;;13.40;99.90;;;;;;6682535;88;20226;-77
2021/05/14 18:12:13;;;;;;;2.05;0.80;;;13.60;99.90;;;;;;6679313;88;20216;-77
2021/05/14 18:22:13;;;;;;;2.42;1.05;;;13.20;99.90;;;;;;6683643;88;20280;-76
2021/05/14 18:32:16;;;;;;;2.28;0.62;;;13.00;99.90;;;;;;6678451;88;20315;-76
2021/05/14 18:42:17;;;;;;;1.23;0.50;;;13.40;99.90;;;;;;6681249;88;20191;-76
2021/05/14 18:52:18;;;;;;;1.92;0.73;;;12.70;99.90;;;;;;6681965;88;20209;-76
2021/05/14 19:02:18;;;;;;;2.78;0.80;;;12.20;99.90;;;;;;6679901;88;20196;-76
2021/05/14 19:12:20;;;;;;;3.42;2.20;;;12.20;99.90;;;;;;6684017;88;20243;-76
2021/05/14 19:22:23;;;;;;;2.10;1.20;;;12.10;99.90;;;;;;6680770;88;20254;-77
2021/05/14 19:43:15;;;;;;;2.78;1.00;;;12.00;99.90;;;;;;6677176;88;20229;-77
2021/05/14 19:53:06;;;;;;;2.15;1.00;;;12.00;99.90;;;;;;6682554;88;20215;-77
2021/05/14 20:03:07;;;;;;;2.35;1.10;;;11.90;99.90;;;;;;6685771;88;20180;-76
2021/05/14 20:13:10;;;;;;;2.35;1.12;;;11.70;99.90;;;;;;6685527;88;20209;-77
2021/05/14 20:23:11;;;;;;;1.87;0.90;;;11.80;99.90;;;;;;6684350;88;20198;-77
2021/05/14 20:33:11;;;;;;;2.17;0.80;;;11.60;99.90;;;;;;6686092;88;20205;-77
2021/05/14 20:43:12;;;;;;;1.73;0.82;;;11.50;99.90;;;;;;6686705;88;20408;-77
2021/05/14 20:53:13;;;;;;;3.80;1.43;;;11.50;99.90;;;;;;6684556;88;20277;-77
2021/05/14 21:03:14;;;;;;;2.45;1.30;;;11.30;99.90;;;;;;6685052;88;20575;-77
2021/05/14 21:13:15;;;;;;;1.98;0.80;;;11.40;99.90;;;;;;6685336;88;20880;-77
2021/05/14 21:23:17;;;;;;;2.53;1.20;;;11.50;99.90;;;;;;6686222;88;20213;-76
2021/05/14 21:33:18;;;;;;;2.53;1.10;;;11.50;99.90;;;;;;6679921;88;20227;-77
2021/05/14 21:43:19;;;;;;;2.47;1.40;;;11.30;99.90;;;;;;6690993;88;20219;-77
2021/05/14 21:53:20;;;;;;;3.53;1.30;;;10.90;99.90;;;;;;6686522;88;20321;-76
2021/05/14 22:03:22;;;;;;;2.45;1.60;;;10.80;99.90;;;;;;6682949;88;21023;-75
2021/05/14 22:13:23;;;;;;;2.37;1.58;;;10.80;99.90;;;;;;6685358;88;20222;-76
2021/05/14 22:23:24;;;;;;;2.85;1.58;;;10.70;99.90;;;;;;6685883;88;20206;-75
2021/05/14 22:33:25;;;;;;;3.37;1.50;;;10.70;99.90;;;;;;6685068;88;20656;-76
2021/05/14 22:43:25;;;;;;;2.62;1.60;;;10.60;99.90;;;;;;6685586;88;20277;-76
2021/05/14 22:53:26;;;;;;;3.00;1.85;;;10.60;99.90;;;;;;6685018;88;20218;-76
2021/05/14 23:03:27;;;;;;;3.60;1.60;;;10.50;99.90;;;;;;6685588;88;20198;-76
2021/05/14 23:13:28;;;;;;;4.22;1.90;;;10.70;99.90;;;;;;6686094;88;20243;-77
2021/05/14 23:23:28;;;;;;;4.15;1.30;;;10.70;99.90;;;;;;6685774;88;20343;-76
2021/05/14 23:33:29;;;;;;;1.58;0.80;;;10.80;99.90;;;;;;6686749;88;20190;-76
2021/05/14 23:43:29;;;;;;;2.25;0.88;;;11.00;99.90;;;;;;6685865;88;20668;-76
2021/05/14 23:53:30;;;;;;;2.25;0.90;;;10.90;99.90;;;;;;6689069;88;20967;-77
